createdAt,value
2023-02-15T00:02:11.290Z,15.98
2023-02-15T00:07:23.445Z,16.02
2023-02-15T00:09:51.385Z,15.27
2023-02-15T00:12:28.023Z,15.38
2023-02-15T00:14:57.721Z,15.85
2023-02-15T00:17:25.440Z,15.32
2023-02-15T00:19:53.185Z,15.93
2023-02-15T00:22:21.789Z,15.38
2023-02-15T00:24:51.946Z,16.40
2023-02-15T00:27:24.867Z,16.05
2023-02-15T00:29:52.660Z,16.07
2023-02-15T00:32:23.792Z,17.08
2023-02-15T00:34:51.843Z,15.90
2023-02-15T00:37:20.009Z,14.57
2023-02-15T00:39:48.953Z,15.68
2023-02-15T00:42:23.985Z,15.10
2023-02-15T00:44:53.358Z,16.65
2023-02-15T00:47:29.344Z,16.90
2023-02-15T00:50:04.885Z,15.75
2023-02-15T00:52:40.490Z,16.10
2023-02-15T00:55:14.119Z,16.17
2023-02-15T01:00:16.017Z,15.98
2023-02-15T01:02:48.502Z,16.30
2023-02-15T01:05:25.260Z,17.10
2023-02-15T01:07:54.522Z,17.23
2023-02-15T01:10:25.625Z,17.05
2023-02-15T01:12:54.768Z,17.08
2023-02-15T01:15:25.729Z,17.77
2023-02-15T01:17:57.383Z,17.83
2023-02-15T01:20:32.102Z,16.35
2023-02-15T01:23:07.430Z,16.73
2023-02-15T01:25:43.301Z,17.13
2023-02-15T01:28:40.727Z,18.45
2023-02-15T01:31:38.498Z,17.45
2023-02-15T01:34:19.827Z,17.60
2023-02-15T01:36:50.764Z,17.83
2023-02-15T01:39:22.258Z,17.77
2023-02-15T01:41:52.851Z,17.48
2023-02-15T01:44:53.700Z,17.35
2023-02-15T01:47:28.387Z,17.40
2023-02-15T01:50:22.370Z,16.92
2023-02-15T01:53:05.879Z,20.00
2023-02-15T01:55:54.374Z,19.17
2023-02-15T01:58:33.199Z,18.55
2023-02-15T02:01:04.906Z,19.10
2023-02-15T02:04:07.275Z,17.48
2023-02-15T02:06:36.866Z,18.77
2023-02-15T02:09:08.952Z,20.10
2023-02-15T02:11:36.632Z,19.23
2023-02-15T02:14:04.866Z,18.08
2023-02-15T02:16:48.325Z,19.20
2023-02-15T02:19:37.036Z,20.00
2023-02-15T02:22:34.376Z,19.90
2023-02-15T02:25:20.453Z,20.08
2023-02-15T02:28:26.972Z,18.95
2023-02-15T02:31:09.784Z,19.75
2023-02-15T02:33:59.526Z,20.13
2023-02-15T02:36:53.022Z,19.77
2023-02-15T02:39:42.071Z,20.20
2023-02-15T02:42:15.582Z,20.00
2023-02-15T02:47:38.778Z,19.83
2023-02-15T02:50:12.349Z,19.73
2023-02-15T02:52:43.236Z,19.30
2023-02-15T02:55:45.228Z,20.00
2023-02-15T02:58:16.037Z,19.13
2023-02-15T03:01:12.601Z,18.95
2023-02-15T03:03:48.520Z,19.03
2023-02-15T03:06:37.145Z,19.00
2023-02-15T03:09:26.476Z,19.65
2023-02-15T03:11:54.646Z,18.10
2023-02-15T03:14:24.926Z,18.30
2023-02-15T03:16:53.895Z,18.40
2023-02-15T03:19:28.250Z,17.35
2023-02-15T03:22:35.271Z,18.23
2023-02-15T03:25:37.538Z,17.80
2023-02-15T03:28:13.830Z,18.50
2023-02-15T03:30:45.382Z,17.88
2023-02-15T03:33:14.264Z,18.55
2023-02-15T03:35:51.602Z,17.63
2023-02-15T03:38:32.509Z,17.50
2023-02-15T03:41:12.105Z,18.58
2023-02-15T03:44:00.397Z,18.33
2023-02-15T03:46:57.826Z,17.77
2023-02-15T03:49:42.312Z,17.20
2023-02-15T03:52:12.243Z,18.52
2023-02-15T03:54:44.081Z,19.55
2023-02-15T03:57:39.770Z,18.98
2023-02-15T04:00:40.983Z,19.10
2023-02-15T04:03:11.341Z,18.30
2023-02-15T04:05:42.516Z,19.42
2023-02-15T04:08:15.303Z,19.45
2023-02-15T04:10:54.907Z,20.83
2023-02-15T04:13:24.563Z,18.38
2023-02-15T04:16:05.764Z,19.30
2023-02-15T04:19:05.698Z,19.70
2023-02-15T04:21:51.615Z,19.27
2023-02-15T04:24:38.617Z,19.33
2023-02-15T04:27:07.358Z,18.20
2023-02-15T04:29:35.195Z,19.33
2023-02-15T04:32:04.589Z,18.52
2023-02-15T04:34:32.412Z,19.63
2023-02-15T04:36:59.838Z,18.92
2023-02-15T04:39:27.174Z,19.80
2023-02-15T04:41:57.566Z,18.80
2023-02-15T04:44:24.976Z,19.25
2023-02-15T04:46:52.343Z,18.13
2023-02-15T04:49:26.005Z,18.73
2023-02-15T04:51:53.568Z,19.90
2023-02-15T04:54:21.029Z,18.60
2023-02-15T04:56:51.180Z,19.20
2023-02-15T04:59:27.871Z,19.02
2023-02-15T05:01:55.265Z,20.42
2023-02-15T05:04:22.672Z,18.70
2023-02-15T05:06:53.116Z,18.88
2023-02-15T05:09:28.219Z,18.45
2023-02-15T05:11:58.136Z,18.98
2023-02-15T05:14:25.486Z,19.10
2023-02-15T05:16:56.178Z,19.08
2023-02-15T05:19:33.493Z,18.63
2023-02-15T05:22:02.147Z,18.33
2023-02-15T05:24:47.850Z,18.20
2023-02-15T05:27:34.163Z,19.40
2023-02-15T05:30:04.804Z,18.30
2023-02-15T05:32:32.253Z,18.48
2023-02-15T05:34:59.590Z,18.77
2023-02-15T05:37:30.063Z,18.73
2023-02-15T05:40:00.255Z,18.58
2023-02-15T05:42:28.129Z,18.88
2023-02-15T05:45:02.053Z,17.67
2023-02-15T05:47:31.570Z,18.05
2023-02-15T05:50:09.217Z,17.70
2023-02-15T05:52:39.898Z,18.95
2023-02-15T05:55:13.976Z,18.00
2023-02-15T05:57:43.727Z,18.50
2023-02-15T06:00:12.589Z,18.38
2023-02-15T06:02:40.394Z,17.20
2023-02-15T06:05:08.958Z,18.75
2023-02-15T06:07:36.139Z,17.15
2023-02-15T06:10:06.109Z,18.73
2023-02-15T06:12:33.662Z,18.15
2023-02-15T06:15:03.675Z,18.10
2023-02-15T06:17:32.090Z,18.10
2023-02-15T06:20:00.244Z,16.55
2023-02-15T06:22:27.595Z,18.05
2023-02-15T06:24:54.943Z,18.45
2023-02-15T06:27:23.197Z,17.10
2023-02-15T06:29:55.980Z,17.77
2023-02-15T06:32:25.924Z,17.98
2023-02-15T06:34:53.181Z,17.27
2023-02-15T06:37:20.855Z,19.38
2023-02-15T06:39:48.250Z,17.13
2023-02-15T06:42:19.876Z,17.80
2023-02-15T06:44:47.153Z,17.92
2023-02-15T06:47:14.553Z,17.50
2023-02-15T06:49:47.934Z,18.02
2023-02-15T06:52:34.448Z,17.77
2023-02-15T06:55:07.747Z,16.60
2023-02-15T06:57:38.604Z,17.85
2023-02-15T07:00:12.339Z,17.33
2023-02-15T07:05:12.192Z,20.58
2023-02-15T07:07:39.495Z,17.87
2023-02-15T07:10:10.098Z,17.92
2023-02-15T07:12:43.789Z,18.08
2023-02-15T07:15:27.459Z,17.02
2023-02-15T07:17:55.274Z,17.90
2023-02-15T07:20:25.468Z,17.98
2023-02-15T07:22:53.091Z,17.15
2023-02-15T07:25:21.112Z,17.25
2023-02-15T07:28:05.891Z,18.75
2023-02-15T07:30:56.768Z,19.17
2023-02-15T07:33:36.432Z,17.95
2023-02-15T07:36:13.509Z,18.50
2023-02-15T07:38:44.532Z,18.58
2023-02-15T07:41:35.101Z,17.42
2023-02-15T07:44:05.540Z,18.73
2023-02-15T07:46:39.355Z,18.63
2023-02-15T07:49:14.254Z,21.80
2023-02-15T07:51:47.268Z,18.90
2023-02-15T07:54:27.214Z,17.55
2023-02-15T07:56:57.588Z,17.05
2023-02-15T07:59:28.597Z,18.20
2023-02-15T08:01:57.812Z,16.70
2023-02-15T08:04:33.771Z,17.17
2023-02-15T08:07:10.920Z,19.08
2023-02-15T08:09:44.520Z,16.75
2023-02-15T08:12:19.728Z,18.05
2023-02-15T08:14:49.881Z,18.30
2023-02-15T08:17:17.962Z,18.67
2023-02-15T08:19:58.384Z,18.20
2023-02-15T08:22:32.591Z,18.25
2023-02-15T08:25:16.064Z,18.90
2023-02-15T08:27:52.787Z,17.80
2023-02-15T08:30:30.973Z,18.58
2023-02-15T08:33:00.910Z,19.73
2023-02-15T08:35:28.488Z,18.08
2023-02-15T08:38:03.286Z,19.02
2023-02-15T08:40:37.651Z,17.90
2023-02-15T08:43:12.568Z,17.80
2023-02-15T08:45:40.130Z,18.40
2023-02-15T08:48:10.129Z,18.00
2023-02-15T08:51:07.143Z,17.95
2023-02-15T08:53:47.074Z,18.15
2023-02-15T08:56:24.922Z,19.83
2023-02-15T08:59:08.364Z,19.73
2023-02-15T09:01:45.386Z,19.38
2023-02-15T09:04:22.936Z,19.75
2023-02-15T09:07:06.209Z,19.52
2023-02-15T09:12:59.358Z,20.35
2023-02-15T09:15:49.110Z,22.02
2023-02-15T09:18:23.515Z,21.23
2023-02-15T09:21:26.842Z,20.55
2023-02-15T09:24:12.742Z,20.75
2023-02-15T09:26:55.245Z,20.00
2023-02-15T09:29:24.002Z,21.25
2023-02-15T09:31:57.222Z,20.13
2023-02-15T09:35:03.385Z,22.35
2023-02-15T09:37:49.868Z,20.70
2023-02-15T09:40:29.851Z,21.73
2023-02-15T09:43:38.671Z,22.85
2023-02-15T09:46:26.810Z,21.10
2023-02-15T09:49:27.140Z,22.63
2023-02-15T09:52:31.429Z,22.55
2023-02-15T09:55:44.045Z,22.63
2023-02-15T10:02:59.443Z,22.40
2023-02-15T10:06:18.429Z,21.58
2023-02-15T10:09:22.467Z,22.90
2023-02-15T10:12:37.651Z,21.98
2023-02-15T10:15:36.948Z,22.38
2023-02-15T10:19:02.812Z,22.95
2023-02-15T10:25:19.147Z,20.80
2023-02-15T10:28:01.266Z,21.25
2023-02-15T10:31:08.636Z,20.88
2023-02-15T10:33:49.018Z,19.23
2023-02-15T10:36:40.643Z,21.20
2023-02-15T10:39:46.469Z,19.90
2023-02-15T10:42:49.488Z,20.38
2023-02-15T10:45:55.713Z,21.02
2023-02-15T10:49:20.166Z,20.65
2023-02-15T10:52:10.954Z,21.42
2023-02-15T10:58:18.088Z,17.08
2023-02-15T11:04:11.915Z,19.20
2023-02-15T11:06:53.096Z,14.82
2023-02-15T11:09:48.703Z,10.63
2023-02-15T11:12:28.706Z,9.35
2023-02-15T11:15:31.713Z,9.57
2023-02-15T11:21:59.478Z,9.18
2023-02-15T11:24:38.042Z,9.48
2023-02-15T11:27:37.875Z,9.25
2023-02-15T11:30:48.724Z,8.82
2023-02-15T11:33:27.955Z,8.77
2023-02-15T11:36:40.501Z,9.75
2023-02-15T11:42:11.754Z,7.85
2023-02-15T11:45:07.362Z,8.55
2023-02-15T11:47:51.741Z,7.63
2023-02-15T11:53:39.514Z,8.32
2023-02-15T11:56:22.660Z,8.23
2023-02-15T11:59:10.810Z,9.13
2023-02-15T12:01:46.164Z,8.45
2023-02-15T12:04:41.332Z,6.68
2023-02-15T12:07:40.307Z,6.03
2023-02-15T12:10:32.812Z,5.32
2023-02-15T12:13:18.289Z,4.70
2023-02-15T12:15:53.222Z,4.55
2023-02-15T12:18:49.896Z,4.50
2023-02-15T12:21:31.349Z,3.83
2023-02-15T12:24:18.335Z,4.30
2023-02-15T12:26:57.526Z,3.78
2023-02-15T12:29:34.360Z,3.13
2023-02-15T12:32:02.496Z,2.50
2023-02-15T12:34:43.703Z,2.75
2023-02-15T12:37:21.392Z,2.75
2023-02-15T12:39:59.926Z,2.35
2023-02-15T12:42:34.107Z,2.60
2023-02-15T12:45:27.268Z,2.60
2023-02-15T12:48:18.818Z,2.47
2023-02-15T12:50:55.021Z,2.28
2023-02-15T12:53:37.281Z,2.80
2023-02-15T12:56:09.713Z,2.47
2023-02-15T12:58:51.668Z,2.35
2023-02-15T13:01:27.063Z,2.40
2023-02-15T13:04:01.906Z,2.30
2023-02-15T13:06:48.959Z,2.30
2023-02-15T13:09:26.717Z,2.38
2023-02-15T13:12:02.403Z,2.65
2023-02-15T13:14:56.954Z,3.92
2023-02-15T13:17:37.113Z,2.72
2023-02-15T13:20:31.602Z,2.80
2023-02-15T13:23:38.404Z,3.30
2023-02-15T13:29:46.388Z,3.17
2023-02-15T13:32:43.830Z,2.53
2023-02-15T13:35:26.293Z,3.10
2023-02-15T13:38:55.161Z,2.80
2023-02-15T13:41:36.977Z,3.60
2023-02-15T13:48:11.480Z,4.07
2023-02-15T13:54:13.510Z,3.70
2023-02-15T13:57:08.871Z,3.90
2023-02-15T14:00:10.476Z,3.67
2023-02-15T14:03:15.868Z,3.60
2023-02-15T14:06:37.537Z,4.18
2023-02-15T14:09:24.926Z,4.38
2023-02-15T14:12:41.248Z,4.05
2023-02-15T14:15:47.093Z,3.05
2023-02-15T14:18:37.084Z,4.00
2023-02-15T14:21:42.069Z,2.95
2023-02-15T14:24:32.059Z,3.00
2023-02-15T14:27:40.029Z,3.13
2023-02-15T14:30:37.653Z,2.85
2023-02-15T14:33:42.284Z,2.55
2023-02-15T14:36:31.351Z,3.03
2023-02-15T14:39:57.628Z,3.15
2023-02-15T14:46:38.998Z,2.33
2023-02-15T14:49:46.410Z,2.45
2023-02-15T14:52:25.319Z,2.65
2023-02-15T14:55:08.533Z,2.90
2023-02-15T14:58:12.570Z,2.58
2023-02-15T15:00:44.725Z,3.00
2023-02-15T15:03:30.616Z,3.42
2023-02-15T15:06:24.463Z,3.42
2023-02-15T15:09:04.825Z,3.63
2023-02-15T15:11:55.711Z,4.07
2023-02-15T15:14:46.152Z,4.40
2023-02-15T15:17:39.849Z,3.83
2023-02-15T15:20:56.889Z,3.92
2023-02-15T15:23:52.811Z,3.55
2023-02-15T15:26:45.550Z,3.90
2023-02-15T15:29:44.390Z,4.90
2023-02-15T15:32:38.044Z,4.53
2023-02-15T15:35:50.267Z,4.78
2023-02-15T15:38:54.853Z,5.15
2023-02-15T15:42:04.030Z,5.55
2023-02-15T15:45:22.572Z,4.35
2023-02-15T15:48:13.480Z,5.10
2023-02-15T15:51:06.670Z,5.00
2023-02-15T15:54:04.072Z,4.97
2023-02-15T15:56:50.794Z,4.88
2023-02-15T15:59:26.830Z,5.07
2023-02-15T16:02:29.170Z,5.43
2023-02-15T16:08:34.943Z,6.78
2023-02-15T16:11:43.960Z,6.15
2023-02-15T16:14:39.844Z,6.43
2023-02-15T16:17:37.109Z,6.38
2023-02-15T16:20:32.583Z,6.80
2023-02-15T16:23:24.953Z,6.60
2023-02-15T16:26:16.528Z,6.07
2023-02-15T16:29:02.473Z,5.53
2023-02-15T16:31:36.015Z,6.43
2023-02-15T16:34:24.260Z,5.70
2023-02-15T16:37:16.408Z,5.38
2023-02-15T16:40:04.108Z,5.75
2023-02-15T16:42:40.933Z,5.07
2023-02-15T16:45:23.506Z,5.80
2023-02-15T16:47:59.065Z,5.45
2023-02-15T16:50:49.045Z,5.68
2023-02-15T16:53:36.606Z,4.70
2023-02-15T16:58:58.892Z,5.45
2023-02-15T17:01:39.629Z,5.03
2023-02-15T17:07:30.913Z,5.78
2023-02-15T17:10:02.422Z,5.95
2023-02-15T17:13:01.422Z,5.22
2023-02-15T17:15:43.136Z,5.50
2023-02-15T17:18:23.110Z,5.97
2023-02-15T17:21:08.508Z,4.97
2023-02-15T17:24:05.909Z,4.80
2023-02-15T17:26:40.849Z,5.38
2023-02-15T17:29:29.630Z,5.03
2023-02-15T17:32:02.068Z,5.07
2023-02-15T17:35:15.665Z,5.28
2023-02-15T17:37:51.948Z,4.63
2023-02-15T17:40:39.607Z,4.13
2023-02-15T17:43:12.031Z,5.13
2023-02-15T17:48:53.884Z,4.40
2023-02-15T17:51:24.324Z,4.75
2023-02-15T17:54:25.468Z,6.00
2023-02-15T17:57:17.915Z,5.75
2023-02-15T18:00:04.496Z,5.80
2023-02-15T18:03:02.791Z,6.45
2023-02-15T18:05:52.500Z,5.80
2023-02-15T18:11:39.240Z,7.40
2023-02-15T18:14:21.862Z,7.35
2023-02-15T18:16:59.594Z,6.63
2023-02-15T18:19:36.065Z,6.03
2023-02-15T18:22:27.243Z,6.32
2023-02-15T18:24:58.218Z,6.10
2023-02-15T18:27:35.164Z,5.97
2023-02-15T18:30:17.111Z,6.05
2023-02-15T18:33:03.119Z,5.45
2023-02-15T18:35:51.769Z,5.35
2023-02-15T18:38:30.913Z,5.57
2023-02-15T18:41:11.090Z,5.75
2023-02-15T18:46:34.707Z,6.75
2023-02-15T18:49:29.640Z,6.78
2023-02-15T18:55:31.320Z,7.03
2023-02-15T18:58:19.465Z,6.63
2023-02-15T19:00:48.708Z,6.43
2023-02-15T19:03:34.482Z,6.15
2023-02-15T19:06:08.649Z,6.80
2023-02-15T19:08:40.337Z,6.43
2023-02-15T19:11:16.438Z,7.20
2023-02-15T19:13:57.848Z,6.18
2023-02-15T19:16:44.242Z,7.40
2023-02-15T19:22:39.556Z,7.03
2023-02-15T19:25:30.624Z,6.70
2023-02-15T19:28:16.295Z,6.10
2023-02-15T19:30:51.168Z,7.22
2023-02-15T19:33:35.222Z,7.30
2023-02-15T19:36:10.168Z,7.07
2023-02-15T19:38:55.044Z,8.25
2023-02-15T19:41:38.716Z,8.77
2023-02-15T19:44:16.040Z,8.10
2023-02-15T19:46:51.480Z,10.88
2023-02-15T19:49:21.864Z,11.95
2023-02-15T19:52:02.473Z,12.15
2023-02-15T19:57:33.023Z,9.55
2023-02-15T20:00:38.676Z,11.20
2023-02-15T20:03:14.565Z,11.63
2023-02-15T20:05:51.430Z,10.25
2023-02-15T20:08:36.598Z,9.93
2023-02-15T20:11:27.985Z,10.10
2023-02-15T20:14:15.197Z,9.85
2023-02-15T20:17:05.820Z,10.30
2023-02-15T20:19:53.947Z,9.60
2023-02-15T20:22:29.838Z,9.63
2023-02-15T20:25:04.139Z,9.77
2023-02-15T20:27:55.093Z,10.88
2023-02-15T20:31:07.974Z,10.15
2023-02-15T20:33:49.975Z,11.57
2023-02-15T20:36:33.927Z,11.55
2023-02-15T20:42:16.372Z,10.95
2023-02-15T20:44:53.638Z,11.88
2023-02-15T20:48:04.324Z,11.07
2023-02-15T20:51:06.413Z,11.20
2023-02-15T20:53:59.637Z,11.00
2023-02-15T20:56:35.857Z,12.63
2023-02-15T20:59:36.154Z,11.50
2023-02-15T21:02:38.919Z,11.95
2023-02-15T21:05:29.284Z,12.27
2023-02-15T21:08:36.461Z,11.77
2023-02-15T21:11:40.214Z,13.07
2023-02-15T21:14:41.830Z,13.18
2023-02-15T21:17:25.238Z,13.20
2023-02-15T21:20:17.717Z,12.95
2023-02-15T21:23:02.444Z,15.18
2023-02-15T21:25:44.430Z,13.40
2023-02-15T21:28:25.045Z,15.38
2023-02-15T21:31:16.654Z,15.25
2023-02-15T21:33:58.196Z,14.52
2023-02-15T21:36:46.015Z,15.57
2023-02-15T21:39:30.787Z,17.42
2023-02-15T21:42:34.821Z,14.50
2023-02-15T21:45:39.739Z,14.55
2023-02-15T21:48:08.339Z,14.43
2023-02-15T21:51:39.010Z,14.55
2023-02-15T21:54:20.831Z,15.52
2023-02-15T21:57:07.208Z,16.10
2023-02-15T21:59:47.190Z,16.60
2023-02-15T22:05:44.854Z,17.55
2023-02-15T22:08:34.874Z,17.85
2023-02-15T22:11:27.595Z,17.65
2023-02-15T22:14:33.307Z,15.85
2023-02-15T22:17:30.735Z,17.10
2023-02-15T22:20:39.959Z,17.50
2023-02-15T22:23:14.979Z,17.40
2023-02-15T22:26:11.202Z,17.98
2023-02-15T22:29:09.241Z,16.83
2023-02-15T22:31:40.178Z,17.98
2023-02-15T22:34:41.320Z,16.75
2023-02-15T22:37:12.534Z,17.58
2023-02-15T22:39:50.615Z,17.85
2023-02-15T22:42:51.294Z,18.25
2023-02-15T22:45:44.201Z,17.95
2023-02-15T22:48:38.075Z,18.17
2023-02-15T22:51:28.748Z,18.02
2023-02-15T22:53:59.256Z,17.35
2023-02-15T22:57:07.202Z,17.58
2023-02-15T22:59:54.919Z,17.40
2023-02-15T23:02:28.428Z,17.35
2023-02-15T23:05:26.317Z,17.83
2023-02-15T23:08:06.490Z,17.10
2023-02-15T23:10:50.334Z,17.40
2023-02-15T23:13:41.372Z,18.00
2023-02-15T23:16:42.055Z,18.13
2023-02-15T23:19:28.609Z,18.02
2023-02-15T23:22:03.757Z,17.02
2023-02-15T23:24:57.085Z,16.27
2023-02-15T23:27:50.149Z,17.20
2023-02-15T23:30:33.209Z,18.25
2023-02-15T23:33:33.117Z,17.67
2023-02-15T23:36:34.476Z,17.55
2023-02-15T23:39:47.091Z,16.75
2023-02-15T23:42:38.540Z,17.70
2023-02-15T23:45:23.376Z,17.58
2023-02-15T23:48:23.798Z,17.65
2023-02-15T23:51:21.487Z,17.55
2023-02-15T23:54:16.888Z,17.30
2023-02-15T23:57:15.084Z,17.52
2023-02-15T23:59:58.477Z,17.25
